sensor_id;sensor_type;location;lat;lon;timestamp;pressure;altitude;pressure_sealevel;temperature;humidity
37860;BME280;23698;52.014;5.190;2023-04-26T00:00:41;101843.69;;;5.49;100.00
37860;BME280;23698;52.014;5.190;2023-04-26T00:03:29;101840.09;;;5.39;100.00
37860;BME280;23698;52.014;5.190;2023-04-26T00:06:16;101841.91;;;5.59;100.00
37860;BME280;23698;52.014;5.190;2023-04-26T00:09:02;101840.19;;;5.58;100.00
37860;BME280;23698;52.014;5.190;2023-04-26T00:11:49;101846.91;;;5.43;100.00
37860;BME280;23698;52.014;5.190;2023-04-26T00:14:36;101848.19;;;4.97;100.00
37860;BME280;23698;52.014;5.190;2023-04-26T00:17:22;101845.63;;;4.74;100.00
37860;BME280;23698;52.014;5.190;2023-04-26T00:20:10;101841.78;;;4.56;100.00
37860;BME280;23698;52.014;5.190;2023-04-26T00:22:57;101841.22;;;4.41;100.00
37860;BME280;23698;52.014;5.190;2023-04-26T00:25:44;101836.88;;;4.17;100.00
37860;BME280;23698;52.014;5.190;2023-04-26T00:28:30;101836.19;;;4.04;100.00
37860;BME280;23698;52.014;5.190;2023-04-26T00:31:16;101822.91;;;4.02;100.00
37860;BME280;23698;52.014;5.190;2023-04-26T00:34:03;101807.28;;;4.07;100.00
37860;BME280;23698;52.014;5.190;2023-04-26T00:36:52;101811.09;;;3.93;100.00
37860;BME280;23698;52.014;5.190;2023-04-26T00:39:38;101800.38;;;3.93;100.00
37860;BME280;23698;52.014;5.190;2023-04-26T00:42:26;101807.16;;;3.97;100.00
37860;BME280;23698;52.014;5.190;2023-04-26T00:45:12;101800.56;;;4.02;100.00
37860;BME280;23698;52.014;5.190;2023-04-26T00:47:59;101801.44;;;3.91;100.00
37860;BME280;23698;52.014;5.190;2023-04-26T00:50:47;101804.88;;;3.82;100.00
37860;BME280;23698;52.014;5.190;2023-04-26T00:53:35;101801.19;;;3.94;100.00
37860;BME280;23698;52.014;5.190;2023-04-26T00:56:23;101799.59;;;3.91;100.00
37860;BME280;23698;52.014;5.190;2023-04-26T00:59:10;101805.13;;;3.90;100.00
37860;BME280;23698;52.014;5.190;2023-04-26T01:01:56;101798.16;;;3.87;100.00
37860;BME280;23698;52.014;5.190;2023-04-26T01:04:43;101799.50;;;3.93;100.00
37860;BME280;23698;52.014;5.190;2023-04-26T01:07:30;101813.91;;;3.92;100.00
37860;BME280;23698;52.014;5.190;2023-04-26T01:10:21;101806.69;;;3.92;100.00
37860;BME280;23698;52.014;5.190;2023-04-26T01:13:08;101808.06;;;3.87;100.00
37860;BME280;23698;52.014;5.190;2023-04-26T01:15:57;101807.31;;;3.85;100.00
37860;BME280;23698;52.014;5.190;2023-04-26T01:18:49;101806.34;;;3.86;100.00
37860;BME280;23698;52.014;5.190;2023-04-26T01:21:36;101811.00;;;3.72;100.00
37860;BME280;23698;52.014;5.190;2023-04-26T01:24:24;101815.75;;;3.57;100.00
37860;BME280;23698;52.014;5.190;2023-04-26T01:27:11;101821.47;;;3.53;100.00
37860;BME280;23698;52.014;5.190;2023-04-26T01:29:58;101817.34;;;3.49;100.00
37860;BME280;23698;52.014;5.190;2023-04-26T01:32:44;101817.34;;;3.37;100.00
37860;BME280;23698;52.014;5.190;2023-04-26T01:35:31;101804.66;;;3.39;100.00
37860;BME280;23698;52.014;5.190;2023-04-26T01:38:17;101797.13;;;3.45;100.00
37860;BME280;23698;52.014;5.190;2023-04-26T01:41:05;101802.47;;;3.45;100.00
37860;BME280;23698;52.014;5.190;2023-04-26T01:43:52;101810.03;;;3.39;100.00
37860;BME280;23698;52.014;5.190;2023-04-26T01:46:39;101792.09;;;3.40;100.00
37860;BME280;23698;52.014;5.190;2023-04-26T01:49:25;101785.19;;;3.37;100.00
37860;BME280;23698;52.014;5.190;2023-04-26T01:52:12;101793.56;;;3.33;100.00
37860;BME280;23698;52.014;5.190;2023-04-26T01:54:58;101788.81;;;3.36;100.00
37860;BME280;23698;52.014;5.190;2023-04-26T01:57:46;101786.63;;;3.42;100.00
37860;BME280;23698;52.014;5.190;2023-04-26T02:00:32;101778.47;;;3.43;100.00
37860;BME280;23698;52.014;5.190;2023-04-26T02:03:19;101772.38;;;3.41;100.00
37860;BME280;23698;52.014;5.190;2023-04-26T02:06:07;101780.53;;;3.39;100.00
37860;BME280;23698;52.014;5.190;2023-04-26T02:08:53;101789.44;;;3.29;100.00
37860;BME280;23698;52.014;5.190;2023-04-26T02:11:40;101779.91;;;3.25;100.00
37860;BME280;23698;52.014;5.190;2023-04-26T02:14:28;101784.44;;;3.24;100.00
37860;BME280;23698;52.014;5.190;2023-04-26T02:17:14;101776.84;;;3.18;100.00
37860;BME280;23698;52.014;5.190;2023-04-26T02:20:01;101781.59;;;3.03;100.00
37860;BME280;23698;52.014;5.190;2023-04-26T02:22:47;101778.56;;;2.96;100.00
37860;BME280;23698;52.014;5.190;2023-04-26T02:25:34;101779.78;;;2.92;100.00
37860;BME280;23698;52.014;5.190;2023-04-26T02:28:21;101774.03;;;2.86;100.00
37860;BME280;23698;52.014;5.190;2023-04-26T02:31:09;101778.78;;;2.82;100.00
37860;BME280;23698;52.014;5.190;2023-04-26T02:33:55;101775.09;;;2.83;100.00
37860;BME280;23698;52.014;5.190;2023-04-26T02:36:41;101775.47;;;2.78;100.00
37860;BME280;23698;52.014;5.190;2023-04-26T02:39:28;101774.47;;;2.68;100.00
37860;BME280;23698;52.014;5.190;2023-04-26T02:42:14;101779.66;;;2.58;100.00
37860;BME280;23698;52.014;5.190;2023-04-26T02:45:01;101776.47;;;2.53;100.00
37860;BME280;23698;52.014;5.190;2023-04-26T02:47:48;101764.94;;;2.53;100.00
37860;BME280;23698;52.014;5.190;2023-04-26T02:50:35;101776.56;;;2.40;100.00
37860;BME280;23698;52.014;5.190;2023-04-26T02:53:22;101778.19;;;2.43;100.00
37860;BME280;23698;52.014;5.190;2023-04-26T02:56:09;101776.47;;;2.42;100.00
37860;BME280;23698;52.014;5.190;2023-04-26T02:58:56;101761.31;;;2.30;100.00
37860;BME280;23698;52.014;5.190;2023-04-26T03:01:42;101764.97;;;2.29;100.00
37860;BME280;23698;52.014;5.190;2023-04-26T03:04:31;101759.44;;;2.43;100.00
37860;BME280;23698;52.014;5.190;2023-04-26T03:07:20;101761.13;;;2.44;100.00
37860;BME280;23698;52.014;5.190;2023-04-26T03:10:07;101764.84;;;2.30;100.00
37860;BME280;23698;52.014;5.190;2023-04-26T03:12:54;101758.88;;;2.26;100.00
37860;BME280;23698;52.014;5.190;2023-04-26T03:15:43;101764.00;;;2.30;100.00
37860;BME280;23698;52.014;5.190;2023-04-26T03:18:30;101760.81;;;2.24;100.00
37860;BME280;23698;52.014;5.190;2023-04-26T03:21:18;101764.72;;;2.32;100.00
37860;BME280;23698;52.014;5.190;2023-04-26T03:24:05;101756.19;;;2.26;100.00
37860;BME280;23698;52.014;5.190;2023-04-26T03:26:52;101753.19;;;2.31;100.00
37860;BME280;23698;52.014;5.190;2023-04-26T03:29:39;101755.13;;;2.29;100.00
37860;BME280;23698;52.014;5.190;2023-04-26T03:32:28;101754.13;;;2.19;100.00
37860;BME280;23698;52.014;5.190;2023-04-26T03:35:15;101750.94;;;2.14;100.00
37860;BME280;23698;52.014;5.190;2023-04-26T03:38:02;101757.59;;;2.08;100.00
37860;BME280;23698;52.014;5.190;2023-04-26T03:40:49;101747.63;;;2.10;100.00
37860;BME280;23698;52.014;5.190;2023-04-26T03:43:35;101752.09;;;2.10;100.00
37860;BME280;23698;52.014;5.190;2023-04-26T03:46:21;101748.69;;;2.07;100.00
37860;BME280;23698;52.014;5.190;2023-04-26T03:49:08;101748.59;;;2.09;100.00
37860;BME280;23698;52.014;5.190;2023-04-26T03:51:54;101753.72;;;2.12;100.00
37860;BME280;23698;52.014;5.190;2023-04-26T03:54:43;101754.44;;;2.14;100.00
37860;BME280;23698;52.014;5.190;2023-04-26T03:57:30;101758.25;;;2.23;100.00
37860;BME280;23698;52.014;5.190;2023-04-26T04:00:17;101756.09;;;2.28;100.00
37860;BME280;23698;52.014;5.190;2023-04-26T04:03:05;101752.38;;;2.42;100.00
37860;BME280;23698;52.014;5.190;2023-04-26T04:05:52;101749.97;;;2.50;100.00
37860;BME280;23698;52.014;5.190;2023-04-26T04:08:38;101759.00;;;2.60;100.00
37860;BME280;23698;52.014;5.190;2023-04-26T04:11:27;101752.56;;;2.63;100.00
37860;BME280;23698;52.014;5.190;2023-04-26T04:14:13;101747.72;;;2.79;100.00
37860;BME280;23698;52.014;5.190;2023-04-26T04:16:59;101753.00;;;2.92;100.00
37860;BME280;23698;52.014;5.190;2023-04-26T04:19:47;101752.75;;;3.07;100.00
37860;BME280;23698;52.014;5.190;2023-04-26T04:22:33;101753.22;;;3.00;100.00
37860;BME280;23698;52.014;5.190;2023-04-26T04:25:20;101751.41;;;3.01;100.00
37860;BME280;23698;52.014;5.190;2023-04-26T04:28:08;101751.78;;;3.19;100.00
37860;BME280;23698;52.014;5.190;2023-04-26T04:30:56;101758.09;;;3.40;100.00
37860;BME280;23698;52.014;5.190;2023-04-26T04:33:43;101757.25;;;3.40;100.00
37860;BME280;23698;52.014;5.190;2023-04-26T04:36:29;101762.84;;;3.37;100.00
37860;BME280;23698;52.014;5.190;2023-04-26T04:39:16;101762.28;;;3.45;100.00
37860;BME280;23698;52.014;5.190;2023-04-26T04:42:03;101764.31;;;3.64;100.00
37860;BME280;23698;52.014;5.190;2023-04-26T04:44:51;101759.38;;;3.91;100.00
37860;BME280;23698;52.014;5.190;2023-04-26T04:47:37;101766.50;;;4.25;100.00
37860;BME280;23698;52.014;5.190;2023-04-26T04:50:24;101770.28;;;4.43;100.00
37860;BME280;23698;52.014;5.190;2023-04-26T04:53:10;101776.13;;;4.48;100.00
37860;BME280;23698;52.014;5.190;2023-04-26T04:55:58;101766.44;;;4.57;100.00
37860;BME280;23698;52.014;5.190;2023-04-26T04:58:45;101774.25;;;4.60;100.00
37860;BME280;23698;52.014;5.190;2023-04-26T05:01:34;101783.94;;;4.72;100.00
37860;BME280;23698;52.014;5.190;2023-04-26T05:04:26;101776.94;;;4.81;100.00
37860;BME280;23698;52.014;5.190;2023-04-26T05:07:12;101783.69;;;4.97;100.00
37860;BME280;23698;52.014;5.190;2023-04-26T05:10:00;101778.50;;;5.26;100.00
37860;BME280;23698;52.014;5.190;2023-04-26T05:12:48;101790.22;;;5.25;100.00
37860;BME280;23698;52.014;5.190;2023-04-26T05:15:34;101782.53;;;5.51;100.00
37860;BME280;23698;52.014;5.190;2023-04-26T05:18:22;101792.53;;;5.70;100.00
37860;BME280;23698;52.014;5.190;2023-04-26T05:21:09;101792.78;;;6.08;100.00
37860;BME280;23698;52.014;5.190;2023-04-26T05:23:55;101791.44;;;5.82;100.00
37860;BME280;23698;52.014;5.190;2023-04-26T05:26:41;101793.50;;;6.19;100.00
37860;BME280;23698;52.014;5.190;2023-04-26T05:29:50;101797.78;;;6.61;100.00
37860;BME280;23698;52.014;5.190;2023-04-26T05:32:56;101804.13;;;6.79;100.00
37860;BME280;23698;52.014;5.190;2023-04-26T05:36:05;101796.94;;;6.80;100.00
37860;BME280;23698;52.014;5.190;2023-04-26T05:38:53;101801.66;;;7.25;100.00
37860;BME280;23698;52.014;5.190;2023-04-26T05:41:39;101807.75;;;7.27;100.00
37860;BME280;23698;52.014;5.190;2023-04-26T05:44:26;101807.47;;;7.21;100.00
37860;BME280;23698;52.014;5.190;2023-04-26T05:47:13;101808.25;;;6.93;100.00
37860;BME280;23698;52.014;5.190;2023-04-26T05:50:05;101804.59;;;6.75;100.00
37860;BME280;23698;52.014;5.190;2023-04-26T05:52:53;101808.06;;;7.14;100.00
37860;BME280;23698;52.014;5.190;2023-04-26T05:55:40;101811.19;;;7.57;100.00
37860;BME280;23698;52.014;5.190;2023-04-26T05:58:26;101816.25;;;7.98;100.00
37860;BME280;23698;52.014;5.190;2023-04-26T06:01:12;101815.09;;;8.64;100.00
37860;BME280;23698;52.014;5.190;2023-04-26T06:03:59;101822.75;;;8.68;100.00
37860;BME280;23698;52.014;5.190;2023-04-26T06:06:52;101827.19;;;8.24;100.00
37860;BME280;23698;52.014;5.190;2023-04-26T06:09:40;101823.56;;;8.87;100.00
37860;BME280;23698;52.014;5.190;2023-04-26T06:12:27;101833.41;;;8.88;100.00
37860;BME280;23698;52.014;5.190;2023-04-26T06:15:15;101830.56;;;8.54;100.00
37860;BME280;23698;52.014;5.190;2023-04-26T06:18:03;101832.00;;;8.66;100.00
37860;BME280;23698;52.014;5.190;2023-04-26T06:20:50;101834.91;;;8.37;100.00
37860;BME280;23698;52.014;5.190;2023-04-26T06:23:37;101831.34;;;8.46;100.00
37860;BME280;23698;52.014;5.190;2023-04-26T06:26:25;101849.72;;;8.42;100.00
37860;BME280;23698;52.014;5.190;2023-04-26T06:29:11;101833.75;;;8.39;100.00
37860;BME280;23698;52.014;5.190;2023-04-26T06:31:58;101845.97;;;8.16;100.00
37860;BME280;23698;52.014;5.190;2023-04-26T06:34:44;101850.50;;;8.25;100.00
37860;BME280;23698;52.014;5.190;2023-04-26T06:37:31;101848.94;;;7.94;100.00
37860;BME280;23698;52.014;5.190;2023-04-26T06:40:18;101854.00;;;7.80;100.00
37860;BME280;23698;52.014;5.190;2023-04-26T06:43:06;101853.34;;;7.96;100.00
37860;BME280;23698;52.014;5.190;2023-04-26T06:46:17;101868.00;;;7.93;100.00
37860;BME280;23698;52.014;5.190;2023-04-26T06:49:09;101857.78;;;7.59;100.00
37860;BME280;23698;52.014;5.190;2023-04-26T06:51:56;101871.19;;;7.79;100.00
37860;BME280;23698;52.014;5.190;2023-04-26T06:54:43;101869.59;;;7.86;100.00
37860;BME280;23698;52.014;5.190;2023-04-26T06:57:41;101868.88;;;8.39;100.00
37860;BME280;23698;52.014;5.190;2023-04-26T07:00:29;101862.81;;;8.55;100.00
37860;BME280;23698;52.014;5.190;2023-04-26T07:03:15;101864.84;;;8.25;100.00
37860;BME280;23698;52.014;5.190;2023-04-26T07:06:02;101881.06;;;7.98;100.00
37860;BME280;23698;52.014;5.190;2023-04-26T07:08:49;101870.84;;;8.19;100.00
37860;BME280;23698;52.014;5.190;2023-04-26T07:11:35;101870.91;;;7.82;100.00
37860;BME280;23698;52.014;5.190;2023-04-26T07:14:22;101869.81;;;8.30;100.00
37860;BME280;23698;52.014;5.190;2023-04-26T07:17:09;101877.13;;;8.38;100.00
37860;BME280;23698;52.014;5.190;2023-04-26T07:19:56;101879.69;;;8.39;100.00
37860;BME280;23698;52.014;5.190;2023-04-26T07:22:42;101885.97;;;8.58;100.00
37860;BME280;23698;52.014;5.190;2023-04-26T07:25:28;101885.31;;;8.74;100.00
37860;BME280;23698;52.014;5.190;2023-04-26T07:28:15;101890.94;;;8.62;100.00
37860;BME280;23698;52.014;5.190;2023-04-26T07:31:02;101896.19;;;8.82;100.00
37860;BME280;23698;52.014;5.190;2023-04-26T07:33:53;101907.25;;;8.71;100.00
37860;BME280;23698;52.014;5.190;2023-04-26T07:36:40;101905.16;;;9.00;100.00
37860;BME280;23698;52.014;5.190;2023-04-26T07:39:26;101911.88;;;8.78;100.00
37860;BME280;23698;52.014;5.190;2023-04-26T07:42:13;101908.16;;;8.61;100.00
37860;BME280;23698;52.014;5.190;2023-04-26T07:45:00;101908.16;;;9.33;100.00
37860;BME280;23698;52.014;5.190;2023-04-26T07:47:48;101906.59;;;9.31;100.00
37860;BME280;23698;52.014;5.190;2023-04-26T07:50:37;101905.97;;;9.37;100.00
37860;BME280;23698;52.014;5.190;2023-04-26T07:53:23;101911.63;;;9.78;100.00
37860;BME280;23698;52.014;5.190;2023-04-26T07:56:10;101923.34;;;9.34;100.00
37860;BME280;23698;52.014;5.190;2023-04-26T07:58:57;101926.91;;;10.21;100.00
37860;BME280;23698;52.014;5.190;2023-04-26T08:01:43;101931.22;;;11.00;100.00
37860;BME280;23698;52.014;5.190;2023-04-26T08:04:31;101933.25;;;10.73;100.00
37860;BME280;23698;52.014;5.190;2023-04-26T08:07:20;101932.72;;;10.77;100.00
37860;BME280;23698;52.014;5.190;2023-04-26T08:10:08;101942.09;;;11.41;100.00
37860;BME280;23698;52.014;5.190;2023-04-26T08:12:58;101939.88;;;11.44;100.00
37860;BME280;23698;52.014;5.190;2023-04-26T08:15:49;101947.38;;;11.34;100.00
37860;BME280;23698;52.014;5.190;2023-04-26T08:18:36;101941.22;;;11.57;100.00
37860;BME280;23698;52.014;5.190;2023-04-26T08:21:22;101943.75;;;11.01;100.00
37860;BME280;23698;52.014;5.190;2023-04-26T08:24:14;101929.88;;;11.12;100.00
37860;BME280;23698;52.014;5.190;2023-04-26T08:27:01;101938.72;;;10.38;100.00
37860;BME280;23698;52.014;5.190;2023-04-26T08:29:51;101951.94;;;10.42;100.00
37860;BME280;23698;52.014;5.190;2023-04-26T08:32:38;101935.91;;;10.65;100.00
37860;BME280;23698;52.014;5.190;2023-04-26T08:35:28;101935.66;;;11.17;100.00
37860;BME280;23698;52.014;5.190;2023-04-26T08:38:15;101933.97;;;11.32;100.00
37860;BME280;23698;52.014;5.190;2023-04-26T08:41:04;101941.06;;;11.33;100.00
37860;BME280;23698;52.014;5.190;2023-04-26T08:43:50;101939.59;;;10.47;100.00
37860;BME280;23698;52.014;5.190;2023-04-26T08:46:40;101941.31;;;10.22;100.00
37860;BME280;23698;52.014;5.190;2023-04-26T08:49:35;101944.25;;;9.68;100.00
37860;BME280;23698;52.014;5.190;2023-04-26T08:52:27;101943.13;;;9.79;100.00
37860;BME280;23698;52.014;5.190;2023-04-26T08:55:14;101937.19;;;9.75;100.00
37860;BME280;23698;52.014;5.190;2023-04-26T08:58:03;101929.53;;;9.44;100.00
37860;BME280;23698;52.014;5.190;2023-04-26T09:00:51;101933.88;;;9.37;100.00
37860;BME280;23698;52.014;5.190;2023-04-26T09:03:37;101935.31;;;9.76;100.00
37860;BME280;23698;52.014;5.190;2023-04-26T09:06:24;101928.47;;;10.24;100.00
37860;BME280;23698;52.014;5.190;2023-04-26T09:09:12;101936.16;;;10.37;100.00
37860;BME280;23698;52.014;5.190;2023-04-26T09:12:03;101937.53;;;10.41;100.00
37860;BME280;23698;52.014;5.190;2023-04-26T09:14:51;101932.56;;;10.79;100.00
37860;BME280;23698;52.014;5.190;2023-04-26T09:17:38;101940.53;;;10.81;100.00
37860;BME280;23698;52.014;5.190;2023-04-26T09:20:27;101936.31;;;11.11;100.00
37860;BME280;23698;52.014;5.190;2023-04-26T09:23:14;101938.63;;;10.65;100.00
37860;BME280;23698;52.014;5.190;2023-04-26T09:26:16;101944.63;;;10.08;100.00
37860;BME280;23698;52.014;5.190;2023-04-26T09:29:12;101944.19;;;10.55;100.00
37860;BME280;23698;52.014;5.190;2023-04-26T09:32:00;101948.19;;;10.85;100.00
37860;BME280;23698;52.014;5.190;2023-04-26T09:34:47;101950.56;;;11.21;100.00
37860;BME280;23698;52.014;5.190;2023-04-26T09:37:34;101941.75;;;11.11;100.00
37860;BME280;23698;52.014;5.190;2023-04-26T09:40:33;101942.53;;;12.02;100.00
37860;BME280;23698;52.014;5.190;2023-04-26T09:43:21;101948.56;;;12.28;100.00
37860;BME280;23698;52.014;5.190;2023-04-26T09:46:08;101955.81;;;12.44;100.00
37860;BME280;23698;52.014;5.190;2023-04-26T09:49:02;101949.78;;;12.18;100.00
37860;BME280;23698;52.014;5.190;2023-04-26T09:51:58;101939.47;;;12.05;100.00
37860;BME280;23698;52.014;5.190;2023-04-26T09:54:46;101941.53;;;11.95;100.00
37860;BME280;23698;52.014;5.190;2023-04-26T09:57:41;101937.38;;;12.15;100.00
37860;BME280;23698;52.014;5.190;2023-04-26T10:00:28;101947.28;;;12.08;100.00
37860;BME280;23698;52.014;5.190;2023-04-26T10:03:17;101945.09;;;12.43;100.00
37860;BME280;23698;52.014;5.190;2023-04-26T10:06:08;101941.69;;;10.70;100.00
37860;BME280;23698;52.014;5.190;2023-04-26T10:08:55;101940.06;;;11.43;100.00
37860;BME280;23698;52.014;5.190;2023-04-26T10:11:42;101947.84;;;11.54;100.00
37860;BME280;23698;52.014;5.190;2023-04-26T10:14:28;101941.22;;;11.73;100.00
37860;BME280;23698;52.014;5.190;2023-04-26T10:17:18;101945.50;;;11.10;100.00
37860;BME280;23698;52.014;5.190;2023-04-26T10:20:10;101941.88;;;10.76;100.00
37860;BME280;23698;52.014;5.190;2023-04-26T10:23:01;101946.03;;;10.46;100.00
37860;BME280;23698;52.014;5.190;2023-04-26T10:25:51;101943.66;;;10.43;100.00
37860;BME280;23698;52.014;5.190;2023-04-26T10:28:53;101942.78;;;11.10;100.00
37860;BME280;23698;52.014;5.190;2023-04-26T10:32:07;101941.09;;;11.42;100.00
37860;BME280;23698;52.014;5.190;2023-04-26T10:35:09;101944.25;;;11.78;100.00
37860;BME280;23698;52.014;5.190;2023-04-26T10:38:09;101940.34;;;11.97;100.00
37860;BME280;23698;52.014;5.190;2023-04-26T10:41:32;101941.69;;;11.93;100.00
37860;BME280;23698;52.014;5.190;2023-04-26T10:44:38;101948.66;;;12.04;100.00
37860;BME280;23698;52.014;5.190;2023-04-26T10:47:30;101946.78;;;11.88;100.00
37860;BME280;23698;52.014;5.190;2023-04-26T10:50:17;101940.44;;;12.20;100.00
37860;BME280;23698;52.014;5.190;2023-04-26T10:53:04;101952.81;;;12.62;100.00
37860;BME280;23698;52.014;5.190;2023-04-26T10:55:52;101947.16;;;12.41;100.00
37860;BME280;23698;52.014;5.190;2023-04-26T10:58:40;101948.28;;;12.86;100.00
37860;BME280;23698;52.014;5.190;2023-04-26T11:01:29;101944.97;;;13.14;100.00
37860;BME280;23698;52.014;5.190;2023-04-26T11:04:15;101947.03;;;12.26;100.00
37860;BME280;23698;52.014;5.190;2023-04-26T11:07:03;101937.84;;;11.63;100.00
37860;BME280;23698;52.014;5.190;2023-04-26T11:09:51;101936.00;;;12.19;100.00
37860;BME280;23698;52.014;5.190;2023-04-26T11:12:41;101930.38;;;12.60;100.00
37860;BME280;23698;52.014;5.190;2023-04-26T11:15:28;101931.31;;;12.44;100.00
37860;BME280;23698;52.014;5.190;2023-04-26T11:18:17;101932.78;;;13.10;100.00
37860;BME280;23698;52.014;5.190;2023-04-26T11:21:06;101922.19;;;12.69;100.00
37860;BME280;23698;52.014;5.190;2023-04-26T11:23:53;101908.13;;;13.26;100.00
37860;BME280;23698;52.014;5.190;2023-04-26T11:26:40;101914.19;;;13.36;100.00
37860;BME280;23698;52.014;5.190;2023-04-26T11:29:28;101907.31;;;13.93;100.00
37860;BME280;23698;52.014;5.190;2023-04-26T11:32:15;101914.72;;;13.70;100.00
37860;BME280;23698;52.014;5.190;2023-04-26T11:35:03;101915.72;;;13.39;100.00
37860;BME280;23698;52.014;5.190;2023-04-26T11:37:51;101909.75;;;13.88;100.00
37860;BME280;23698;52.014;5.190;2023-04-26T11:40:38;101910.38;;;13.46;100.00
37860;BME280;23698;52.014;5.190;2023-04-26T11:43:34;101913.16;;;14.05;100.00
37860;BME280;23698;52.014;5.190;2023-04-26T11:46:23;101912.53;;;13.35;100.00
37860;BME280;23698;52.014;5.190;2023-04-26T11:49:10;101908.25;;;13.71;100.00
37860;BME280;23698;52.014;5.190;2023-04-26T11:51:57;101908.66;;;12.21;100.00
37860;BME280;23698;52.014;5.190;2023-04-26T11:54:43;101914.25;;;12.82;100.00
37860;BME280;23698;52.014;5.190;2023-04-26T11:57:30;101908.81;;;13.81;100.00
37860;BME280;23698;52.014;5.190;2023-04-26T12:00:18;101910.69;;;13.51;100.00
37860;BME280;23698;52.014;5.190;2023-04-26T12:03:07;101913.53;;;14.02;100.00
37860;BME280;23698;52.014;5.190;2023-04-26T12:05:55;101910.03;;;14.38;100.00
37860;BME280;23698;52.014;5.190;2023-04-26T12:08:48;101909.63;;;14.78;100.00
37860;BME280;23698;52.014;5.190;2023-04-26T12:11:36;101915.19;;;14.33;100.00
37860;BME280;23698;52.014;5.190;2023-04-26T12:14:23;101908.91;;;13.73;100.00
37860;BME280;23698;52.014;5.190;2023-04-26T12:17:09;101909.28;;;13.70;100.00
37860;BME280;23698;52.014;5.190;2023-04-26T12:19:57;101907.38;;;13.40;100.00
37860;BME280;23698;52.014;5.190;2023-04-26T12:22:56;101903.34;;;13.96;100.00
37860;BME280;23698;52.014;5.190;2023-04-26T12:25:52;101910.88;;;13.64;100.00
37860;BME280;23698;52.014;5.190;2023-04-26T12:28:39;101913.34;;;13.36;100.00
37860;BME280;23698;52.014;5.190;2023-04-26T12:31:28;101907.28;;;13.26;100.00
37860;BME280;23698;52.014;5.190;2023-04-26T12:34:15;101905.66;;;12.70;100.00
37860;BME280;23698;52.014;5.190;2023-04-26T12:37:03;101917.59;;;12.69;100.00
37860;BME280;23698;52.014;5.190;2023-04-26T12:39:50;101908.22;;;13.41;100.00
37860;BME280;23698;52.014;5.190;2023-04-26T12:42:36;101911.66;;;13.88;100.00
37860;BME280;23698;52.014;5.190;2023-04-26T12:45:24;101907.97;;;13.95;100.00
37860;BME280;23698;52.014;5.190;2023-04-26T12:48:11;101913.28;;;12.98;100.00
37860;BME280;23698;52.014;5.190;2023-04-26T12:50:58;101909.91;;;13.19;100.00
37860;BME280;23698;52.014;5.190;2023-04-26T12:53:47;101903.06;;;13.23;100.00
37860;BME280;23698;52.014;5.190;2023-04-26T12:56:35;101906.19;;;13.58;100.00
37860;BME280;23698;52.014;5.190;2023-04-26T12:59:26;101908.44;;;13.69;100.00
37860;BME280;23698;52.014;5.190;2023-04-26T13:02:13;101913.59;;;14.39;100.00
37860;BME280;23698;52.014;5.190;2023-04-26T13:05:01;101908.31;;;13.48;100.00
37860;BME280;23698;52.014;5.190;2023-04-26T13:07:50;101904.50;;;13.72;100.00
37860;BME280;23698;52.014;5.190;2023-04-26T13:10:38;101907.19;;;13.42;100.00
37860;BME280;23698;52.014;5.190;2023-04-26T13:13:24;101907.06;;;14.03;100.00
37860;BME280;23698;52.014;5.190;2023-04-26T13:16:27;101906.66;;;14.72;100.00
37860;BME280;23698;52.014;5.190;2023-04-26T13:19:14;101903.81;;;14.29;100.00
37860;BME280;23698;52.014;5.190;2023-04-26T13:22:02;101909.38;;;14.72;98.37
37860;BME280;23698;52.014;5.190;2023-04-26T13:24:48;101904.91;;;14.65;93.36
37860;BME280;23698;52.014;5.190;2023-04-26T13:27:36;101902.78;;;14.82;96.04
37860;BME280;23698;52.014;5.190;2023-04-26T13:30:23;101897.91;;;15.27;97.83
37860;BME280;23698;52.014;5.190;2023-04-26T13:33:10;101892.34;;;14.92;87.79
37860;BME280;23698;52.014;5.190;2023-04-26T13:35:56;101897.84;;;14.56;92.48
37860;BME280;23698;52.014;5.190;2023-04-26T13:38:43;101902.41;;;15.13;95.13
37860;BME280;23698;52.014;5.190;2023-04-26T13:41:31;101905.91;;;15.50;91.10
37860;BME280;23698;52.014;5.190;2023-04-26T13:44:20;101915.75;;;15.51;90.49
37860;BME280;23698;52.014;5.190;2023-04-26T13:47:07;101902.09;;;15.23;98.07
37860;BME280;23698;52.014;5.190;2023-04-26T13:49:53;101902.63;;;14.90;99.06
37860;BME280;23698;52.014;5.190;2023-04-26T13:52:40;101909.28;;;14.29;99.28
37860;BME280;23698;52.014;5.190;2023-04-26T13:55:27;101906.09;;;13.96;100.00
37860;BME280;23698;52.014;5.190;2023-04-26T13:58:15;101910.78;;;14.17;100.00
37860;BME280;23698;52.014;5.190;2023-04-26T14:01:04;101916.03;;;13.59;100.00
37860;BME280;23698;52.014;5.190;2023-04-26T14:03:51;101908.47;;;13.84;100.00
37860;BME280;23698;52.014;5.190;2023-04-26T14:06:41;101911.47;;;13.36;100.00
37860;BME280;23698;52.014;5.190;2023-04-26T14:09:29;101911.53;;;12.59;100.00
37860;BME280;23698;52.014;5.190;2023-04-26T14:12:15;101913.66;;;12.40;100.00
37860;BME280;23698;52.014;5.190;2023-04-26T14:15:03;101909.72;;;12.12;100.00
37860;BME280;23698;52.014;5.190;2023-04-26T14:17:51;101913.22;;;11.73;100.00
37860;BME280;23698;52.014;5.190;2023-04-26T14:20:39;101908.94;;;11.78;100.00
37860;BME280;23698;52.014;5.190;2023-04-26T14:23:26;101909.78;;;11.79;100.00
37860;BME280;23698;52.014;5.190;2023-04-26T14:26:12;101909.13;;;11.77;100.00
37860;BME280;23698;52.014;5.190;2023-04-26T14:28:59;101916.59;;;11.66;100.00
37860;BME280;23698;52.014;5.190;2023-04-26T14:31:46;101906.78;;;12.53;100.00
37860;BME280;23698;52.014;5.190;2023-04-26T14:34:34;101902.53;;;12.58;100.00